Pagina principale
METAR-TAF:

METAR-TAF

Aeroporti :

Szolnok, Ungheria

latitudine: 47-07N, longitudine: 020-14E, altezza: 89 m

Osservazione

Il bollettino è stato emesso 39 minuti fa, alle 05:15 UTC
Vento 2 kt da nord/nord-ovest
Temperature 18°C
Umidità 77%
Pressione 1016 hPa
Visibilità 10 km o più
nessuna nube inferiore a 1500 m e nessun cumulonembo

METAR: LHSN 030515Z 33002KT CAVOK 18/14 Q1016 NOSIG RMK BLU

Ora: 07:54 (05:54 UTC)

Previsione

Il bollettino è stato emesso 39 minuti fa, alle 05:15 UTC
Previsione valida dal 03 alle 06 UTC al 03 alle 15 UTC
Vento 3 kt da direzioni variabili
Visibilità 10 km o più
nessuna nube inferiore a 1500 m e nessun cumulonembo
Evoluzione graduale
dal 03 alle 08 UTC al 03 alle 10 UTC
Vento 6 kt da sud/sud-ovest

TAF: LHSN 030515Z 0306/0315 VRB03KT CAVOK BECMG 0308/0310 21006KT

Osservazioni e previsioni meteorologiche di più di 4000 aeroporti (messaggi METAR e TAF).

Le stazioni disponibili sono rappresentate dai dischi gialli e rossi sulla carta.

Puntare il mouse per vedere il nome della stazione.

Clicca sopra per visualizzare le osservazioni e previsioni meteorologiche.

Per cambiare la mappa : fare clic sui pulsanti verdi con una croce nera per ingrandire, il pulsante verde con un trattino per diminuire, o sulla freccia verde per le mappe adiacenti.


METAR-TAF: